sensor_id;sensor_type;location;lat;lon;timestamp;temperature;humidity
68274;SHT30;55104;47.356;19.448;2023-02-03T00:02:50;1.81;87.86
68274;SHT30;55104;47.356;19.448;2023-02-03T00:05:53;1.82;87.75
68274;SHT30;55104;47.356;19.448;2023-02-03T00:08:56;1.73;88.00
68274;SHT30;55104;47.356;19.448;2023-02-03T00:12:00;1.75;87.79
68274;SHT30;55104;47.356;19.448;2023-02-03T00:15:02;1.68;87.91
68274;SHT30;55104;47.356;19.448;2023-02-03T00:18:04;1.63;87.91
68274;SHT30;55104;47.356;19.448;2023-02-03T00:21:06;1.59;88.00
68274;SHT30;55104;47.356;19.448;2023-02-03T00:24:08;1.56;87.87
68274;SHT30;55104;47.356;19.448;2023-02-03T00:27:10;1.50;87.91
68274;SHT30;55104;47.356;19.448;2023-02-03T00:30:12;1.45;87.96
68274;SHT30;55104;47.356;19.448;2023-02-03T00:33:14;1.43;87.92
68274;SHT30;55104;47.356;19.448;2023-02-03T00:36:16;1.52;87.46
68274;SHT30;55104;47.356;19.448;2023-02-03T00:39:19;1.49;87.32
68274;SHT30;55104;47.356;19.448;2023-02-03T00:42:21;1.42;87.13
68274;SHT30;55104;47.356;19.448;2023-02-03T00:45:23;1.43;87.00
68274;SHT30;55104;47.356;19.448;2023-02-03T00:48:25;1.40;86.78
68274;SHT30;55104;47.356;19.448;2023-02-03T00:51:27;1.39;86.64
68274;SHT30;55104;47.356;19.448;2023-02-03T00:54:29;1.28;86.83
68274;SHT30;55104;47.356;19.448;2023-02-03T00:57:34;1.21;86.79
68274;SHT30;55104;47.356;19.448;2023-02-03T01:00:36;1.14;86.68
68274;SHT30;55104;47.356;19.448;2023-02-03T01:03:39;1.09;86.79
68274;SHT30;55104;47.356;19.448;2023-02-03T01:06:41;0.98;87.13
68274;SHT30;55104;47.356;19.448;2023-02-03T01:09:43;0.91;87.23
68274;SHT30;55104;47.356;19.448;2023-02-03T01:12:45;0.85;87.45
68274;SHT30;55104;47.356;19.448;2023-02-03T01:15:47;0.80;87.67
68274;SHT30;55104;47.356;19.448;2023-02-03T01:18:50;0.63;87.99
68274;SHT30;55104;47.356;19.448;2023-02-03T01:21:52;0.52;88.31
68274;SHT30;55104;47.356;19.448;2023-02-03T01:24:54;0.45;88.71
68274;SHT30;55104;47.356;19.448;2023-02-03T01:27:56;0.38;88.63
68274;SHT30;55104;47.356;19.448;2023-02-03T01:31:11;0.25;89.12
68274;SHT30;55104;47.356;19.448;2023-02-03T01:34:15;0.18;89.51
68274;SHT30;55104;47.356;19.448;2023-02-03T01:37:17;0.14;89.70
68274;SHT30;55104;47.356;19.448;2023-02-03T01:40:19;0.24;89.32
68274;SHT30;55104;47.356;19.448;2023-02-03T01:43:36;0.29;88.74
68274;SHT30;55104;47.356;19.448;2023-02-03T01:46:47;0.28;88.54
68274;SHT30;55104;47.356;19.448;2023-02-03T01:50:13;0.33;88.03
68274;SHT30;55104;47.356;19.448;2023-02-03T01:53:17;0.43;87.47
68274;SHT30;55104;47.356;19.448;2023-02-03T01:56:20;0.41;87.13
68274;SHT30;55104;47.356;19.448;2023-02-03T01:59:23;0.50;86.30
68274;SHT30;55104;47.356;19.448;2023-02-03T02:02:27;0.56;85.96
68274;SHT30;55104;47.356;19.448;2023-02-03T02:05:36;0.61;85.69
68274;SHT30;55104;47.356;19.448;2023-02-03T02:08:43;0.53;85.77
68274;SHT30;55104;47.356;19.448;2023-02-03T02:11:46;0.56;84.93
68274;SHT30;55104;47.356;19.448;2023-02-03T02:14:49;0.48;85.32
68274;SHT30;55104;47.356;19.448;2023-02-03T02:18:07;0.46;84.71
68274;SHT30;55104;47.356;19.448;2023-02-03T02:21:41;0.46;84.59
68274;SHT30;55104;47.356;19.448;2023-02-03T02:25:39;0.48;84.30
68274;SHT30;55104;47.356;19.448;2023-02-03T02:35:55;0.36;83.94
68274;SHT30;55104;47.356;19.448;2023-02-03T02:39:22;0.43;83.43
68274;SHT30;55104;47.356;19.448;2023-02-03T02:46:01;0.22;83.66
68274;SHT30;55104;47.356;19.448;2023-02-03T02:49:09;0.12;83.97
68274;SHT30;55104;47.356;19.448;2023-02-03T02:52:14;0.21;83.23
68274;SHT30;55104;47.356;19.448;2023-02-03T02:55:25;0.25;82.99
68274;SHT30;55104;47.356;19.448;2023-02-03T02:58:35;0.28;82.85
68274;SHT30;55104;47.356;19.448;2023-02-03T03:01:38;0.38;82.29
68274;SHT30;55104;47.356;19.448;2023-02-03T03:04:47;0.32;81.60
68274;SHT30;55104;47.356;19.448;2023-02-03T03:07:58;0.39;81.15
68274;SHT30;55104;47.356;19.448;2023-02-03T03:11:04;0.35;81.37
68274;SHT30;55104;47.356;19.448;2023-02-03T03:14:07;0.28;81.85
68274;SHT30;55104;47.356;19.448;2023-02-03T03:17:14;0.21;81.94
68274;SHT30;55104;47.356;19.448;2023-02-03T03:20:21;0.21;82.22
68274;SHT30;55104;47.356;19.448;2023-02-03T03:23:28;0.15;82.49
68274;SHT30;55104;47.356;19.448;2023-02-03T03:26:43;0.14;82.55
68274;SHT30;55104;47.356;19.448;2023-02-03T03:29:51;0.08;82.74
68274;SHT30;55104;47.356;19.448;2023-02-03T03:32:55;-0.05;83.62
68274;SHT30;55104;47.356;19.448;2023-02-03T03:36:02;-0.09;83.51
68274;SHT30;55104;47.356;19.448;2023-02-03T03:39:23;-0.07;83.43
68274;SHT30;55104;47.356;19.448;2023-02-03T03:45:43;-0.17;83.64
68274;SHT30;55104;47.356;19.448;2023-02-03T03:49:00;-0.17;83.59
68274;SHT30;55104;47.356;19.448;2023-02-03T03:52:06;-0.07;83.05
68274;SHT30;55104;47.356;19.448;2023-02-03T03:55:10;-0.16;83.26
68274;SHT30;55104;47.356;19.448;2023-02-03T03:58:17;-0.16;83.13
68274;SHT30;55104;47.356;19.448;2023-02-03T04:01:21;-0.16;83.21
68274;SHT30;55104;47.356;19.448;2023-02-03T04:04:25;-0.23;83.25
68274;SHT30;55104;47.356;19.448;2023-02-03T04:07:40;-0.26;83.23
68274;SHT30;55104;47.356;19.448;2023-02-03T04:10:43;-0.23;83.16
68274;SHT30;55104;47.356;19.448;2023-02-03T04:13:45;-0.30;83.27
68274;SHT30;55104;47.356;19.448;2023-02-03T04:16:47;-0.38;83.29
68274;SHT30;55104;47.356;19.448;2023-02-03T04:19:49;-0.47;83.57
68274;SHT30;55104;47.356;19.448;2023-02-03T04:22:51;-0.49;83.35
68274;SHT30;55104;47.356;19.448;2023-02-03T04:25:53;-0.51;83.18
68274;SHT30;55104;47.356;19.448;2023-02-03T04:28:55;-0.44;83.07
68274;SHT30;55104;47.356;19.448;2023-02-03T04:31:57;-0.49;82.86
68274;SHT30;55104;47.356;19.448;2023-02-03T04:35:01;-0.47;83.22
68274;SHT30;55104;47.356;19.448;2023-02-03T04:38:03;-0.41;82.41
68274;SHT30;55104;47.356;19.448;2023-02-03T04:41:05;-0.47;82.25
68274;SHT30;55104;47.356;19.448;2023-02-03T04:44:07;-0.49;82.51
68274;SHT30;55104;47.356;19.448;2023-02-03T04:47:09;-0.51;82.29
68274;SHT30;55104;47.356;19.448;2023-02-03T04:50:11;-0.57;82.51
68274;SHT30;55104;47.356;19.448;2023-02-03T04:53:13;-0.62;82.50
68274;SHT30;55104;47.356;19.448;2023-02-03T04:56:16;-0.68;82.77
68274;SHT30;55104;47.356;19.448;2023-02-03T04:59:19;-0.67;82.47
68274;SHT30;55104;47.356;19.448;2023-02-03T05:02:21;-0.68;82.50
68274;SHT30;55104;47.356;19.448;2023-02-03T05:05:23;-0.71;82.92
68274;SHT30;55104;47.356;19.448;2023-02-03T05:08:25;-0.74;83.65
68274;SHT30;55104;47.356;19.448;2023-02-03T05:11:27;-0.79;84.15
68274;SHT30;55104;47.356;19.448;2023-02-03T05:14:29;-0.84;84.30
68274;SHT30;55104;47.356;19.448;2023-02-03T05:17:31;-0.88;84.25
68274;SHT30;55104;47.356;19.448;2023-02-03T05:20:37;-0.86;84.14
68274;SHT30;55104;47.356;19.448;2023-02-03T05:23:39;-0.95;84.80
68274;SHT30;55104;47.356;19.448;2023-02-03T05:26:41;-0.96;85.19
68274;SHT30;55104;47.356;19.448;2023-02-03T05:29:43;-0.96;85.33
68274;SHT30;55104;47.356;19.448;2023-02-03T05:32:45;-1.00;85.15
68274;SHT30;55104;47.356;19.448;2023-02-03T05:35:49;-1.02;85.57
68274;SHT30;55104;47.356;19.448;2023-02-03T05:38:51;-1.00;86.11
68274;SHT30;55104;47.356;19.448;2023-02-03T05:41:53;-0.89;85.38
68274;SHT30;55104;47.356;19.448;2023-02-03T05:44:58;-0.88;84.64
68274;SHT30;55104;47.356;19.448;2023-02-03T05:48:00;-0.74;84.22
68274;SHT30;55104;47.356;19.448;2023-02-03T05:51:05;-0.74;84.45
68274;SHT30;55104;47.356;19.448;2023-02-03T05:54:08;-0.62;82.76
68274;SHT30;55104;47.356;19.448;2023-02-03T05:57:10;-0.38;80.63
68274;SHT30;55104;47.356;19.448;2023-02-03T06:00:14;-0.33;79.98
68274;SHT30;55104;47.356;19.448;2023-02-03T06:03:16;-0.17;79.49
68274;SHT30;55104;47.356;19.448;2023-02-03T06:06:18;-0.05;79.13
68274;SHT30;55104;47.356;19.448;2023-02-03T06:09:20;0.04;78.46
68274;SHT30;55104;47.356;19.448;2023-02-03T06:12:23;-0.01;78.88
68274;SHT30;55104;47.356;19.448;2023-02-03T06:15:25;0.06;78.66
68274;SHT30;55104;47.356;19.448;2023-02-03T06:18:27;0.05;78.56
68274;SHT30;55104;47.356;19.448;2023-02-03T06:21:29;-0.02;78.98
68274;SHT30;55104;47.356;19.448;2023-02-03T06:24:31;0.01;80.01
68274;SHT30;55104;47.356;19.448;2023-02-03T06:27:33;-0.05;81.32
68274;SHT30;55104;47.356;19.448;2023-02-03T06:30:35;-0.09;82.02
68274;SHT30;55104;47.356;19.448;2023-02-03T06:33:38;-0.14;82.46
68274;SHT30;55104;47.356;19.448;2023-02-03T06:36:40;-0.12;82.47
68274;SHT30;55104;47.356;19.448;2023-02-03T06:39:42;-0.09;82.43
68274;SHT30;55104;47.356;19.448;2023-02-03T06:42:47;-0.12;82.18
68274;SHT30;55104;47.356;19.448;2023-02-03T06:45:49;-0.06;82.30
68274;SHT30;55104;47.356;19.448;2023-02-03T06:48:52;-0.03;82.25
68274;SHT30;55104;47.356;19.448;2023-02-03T06:51:54;-0.01;81.11
68274;SHT30;55104;47.356;19.448;2023-02-03T06:54:56;0.05;80.45
68274;SHT30;55104;47.356;19.448;2023-02-03T06:57:58;0.08;81.25
68274;SHT30;55104;47.356;19.448;2023-02-03T07:01:00;0.09;82.19
68274;SHT30;55104;47.356;19.448;2023-02-03T07:04:03;0.12;82.64
68274;SHT30;55104;47.356;19.448;2023-02-03T07:07:06;0.18;82.22
68274;SHT30;55104;47.356;19.448;2023-02-03T07:10:08;0.18;82.50
68274;SHT30;55104;47.356;19.448;2023-02-03T07:13:10;0.22;81.90
68274;SHT30;55104;47.356;19.448;2023-02-03T07:16:12;0.28;81.28
68274;SHT30;55104;47.356;19.448;2023-02-03T07:19:15;0.28;80.31
68274;SHT30;55104;47.356;19.448;2023-02-03T07:22:17;0.33;81.03
68274;SHT30;55104;47.356;19.448;2023-02-03T07:25:19;0.36;81.21
68274;SHT30;55104;47.356;19.448;2023-02-03T07:28:21;0.41;82.03
68274;SHT30;55104;47.356;19.448;2023-02-03T07:31:23;0.43;81.47
68274;SHT30;55104;47.356;19.448;2023-02-03T07:34:25;0.48;81.14
68274;SHT30;55104;47.356;19.448;2023-02-03T07:37:27;0.54;80.72
68274;SHT30;55104;47.356;19.448;2023-02-03T07:40:29;0.57;81.33
68274;SHT30;55104;47.356;19.448;2023-02-03T07:43:31;0.63;81.13
68274;SHT30;55104;47.356;19.448;2023-02-03T07:46:34;0.67;81.57
68274;SHT30;55104;47.356;19.448;2023-02-03T07:49:36;0.74;81.05
68274;SHT30;55104;47.356;19.448;2023-02-03T07:52:38;0.79;80.89
68274;SHT30;55104;47.356;19.448;2023-02-03T07:55:41;0.85;79.90
68274;SHT30;55104;47.356;19.448;2023-02-03T07:58:44;0.91;80.24
68274;SHT30;55104;47.356;19.448;2023-02-03T08:01:46;0.91;78.85
68274;SHT30;55104;47.356;19.448;2023-02-03T08:04:48;0.92;78.83
68274;SHT30;55104;47.356;19.448;2023-02-03T08:07:50;0.98;79.55
68274;SHT30;55104;47.356;19.448;2023-02-03T08:10:54;1.02;78.13
68274;SHT30;55104;47.356;19.448;2023-02-03T08:13:57;0.98;78.93
68274;SHT30;55104;47.356;19.448;2023-02-03T08:16:59;0.97;78.72
68274;SHT30;55104;47.356;19.448;2023-02-03T08:20:01;1.01;78.70
68274;SHT30;55104;47.356;19.448;2023-02-03T08:23:03;0.94;78.79
68274;SHT30;55104;47.356;19.448;2023-02-03T08:26:05;1.02;79.09
68274;SHT30;55104;47.356;19.448;2023-02-03T08:29:08;1.01;79.52
68274;SHT30;55104;47.356;19.448;2023-02-03T08:32:12;0.88;79.58
68274;SHT30;55104;47.356;19.448;2023-02-03T08:35:14;0.95;80.01
68274;SHT30;55104;47.356;19.448;2023-02-03T08:38:16;0.99;80.26
68274;SHT30;55104;47.356;19.448;2023-02-03T08:41:18;1.07;80.53
68274;SHT30;55104;47.356;19.448;2023-02-03T08:44:21;1.15;80.31
68274;SHT30;55104;47.356;19.448;2023-02-03T08:47:23;1.21;80.41
68274;SHT30;55104;47.356;19.448;2023-02-03T08:50:26;1.22;80.68
68274;SHT30;55104;47.356;19.448;2023-02-03T08:53:28;1.25;80.35
68274;SHT30;55104;47.356;19.448;2023-02-03T08:56:30;1.38;80.23
68274;SHT30;55104;47.356;19.448;2023-02-03T08:59:37;1.42;80.57
68274;SHT30;55104;47.356;19.448;2023-02-03T09:02:39;1.49;80.34
68274;SHT30;55104;47.356;19.448;2023-02-03T09:05:42;1.49;80.15
68274;SHT30;55104;47.356;19.448;2023-02-03T09:08:44;1.57;79.22
68274;SHT30;55104;47.356;19.448;2023-02-03T09:11:47;1.56;78.92
68274;SHT30;55104;47.356;19.448;2023-02-03T09:14:50;1.54;78.44
68274;SHT30;55104;47.356;19.448;2023-02-03T09:17:52;1.56;78.13
68274;SHT30;55104;47.356;19.448;2023-02-03T09:21:03;1.63;78.37
68274;SHT30;55104;47.356;19.448;2023-02-03T09:24:05;1.66;77.96
68274;SHT30;55104;47.356;19.448;2023-02-03T09:27:08;1.74;77.16
68274;SHT30;55104;47.356;19.448;2023-02-03T09:30:10;1.80;77.54
68274;SHT30;55104;47.356;19.448;2023-02-03T09:33:14;1.78;78.45
68274;SHT30;55104;47.356;19.448;2023-02-03T09:36:16;1.70;78.48
68274;SHT30;55104;47.356;19.448;2023-02-03T09:39:18;1.63;80.45
68274;SHT30;55104;47.356;19.448;2023-02-03T09:46:05;1.39;85.76
68274;SHT30;55104;47.356;19.448;2023-02-03T09:49:16;1.08;88.43
68274;SHT30;55104;47.356;19.448;2023-02-03T09:52:22;0.92;90.18
68274;SHT30;55104;47.356;19.448;2023-02-03T09:55:40;0.91;90.81
68274;SHT30;55104;47.356;19.448;2023-02-03T09:58:43;0.71;91.99
68274;SHT30;55104;47.356;19.448;2023-02-03T10:02:01;0.70;92.56
68274;SHT30;55104;47.356;19.448;2023-02-03T10:18:32;0.90;93.39
68274;SHT30;55104;47.356;19.448;2023-02-03T10:21:40;1.04;93.07
68274;SHT30;55104;47.356;19.448;2023-02-03T10:25:13;1.14;92.92
68274;SHT30;55104;47.356;19.448;2023-02-03T10:28:19;1.12;93.08
68274;SHT30;55104;47.356;19.448;2023-02-03T10:31:25;1.25;92.49
68274;SHT30;55104;47.356;19.448;2023-02-03T10:34:28;1.29;92.58
68274;SHT30;55104;47.356;19.448;2023-02-03T10:37:35;1.28;92.83
68274;SHT30;55104;47.356;19.448;2023-02-03T10:40:40;1.25;93.08
68274;SHT30;55104;47.356;19.448;2023-02-03T10:43:42;1.39;92.47
68274;SHT30;55104;47.356;19.448;2023-02-03T10:46:52;1.39;92.30
68274;SHT30;55104;47.356;19.448;2023-02-03T10:49:56;1.38;92.37
68274;SHT30;55104;47.356;19.448;2023-02-03T10:56:25;1.42;92.37
68274;SHT30;55104;47.356;19.448;2023-02-03T10:59:30;1.45;92.28
68274;SHT30;55104;47.356;19.448;2023-02-03T11:02:33;1.46;92.47
68274;SHT30;55104;47.356;19.448;2023-02-03T11:05:35;1.53;91.98
68274;SHT30;55104;47.356;19.448;2023-02-03T11:08:40;1.50;92.34
68274;SHT30;55104;47.356;19.448;2023-02-03T11:11:43;1.52;92.35
68274;SHT30;55104;47.356;19.448;2023-02-03T11:14:48;1.42;92.92
68274;SHT30;55104;47.356;19.448;2023-02-03T11:17:51;1.43;92.89
68274;SHT30;55104;47.356;19.448;2023-02-03T11:20:53;1.47;92.61
68274;SHT30;55104;47.356;19.448;2023-02-03T11:24:23;1.49;92.77
68274;SHT30;55104;47.356;19.448;2023-02-03T11:27:29;1.47;93.00
68274;SHT30;55104;47.356;19.448;2023-02-03T11:30:31;1.53;92.81
68274;SHT30;55104;47.356;19.448;2023-02-03T11:33:34;1.52;92.95
68274;SHT30;55104;47.356;19.448;2023-02-03T11:36:36;1.52;92.79
68274;SHT30;55104;47.356;19.448;2023-02-03T11:39:38;1.45;93.14
68274;SHT30;55104;47.356;19.448;2023-02-03T11:42:43;1.46;93.39
68274;SHT30;55104;47.356;19.448;2023-02-03T11:45:47;1.36;93.58
68274;SHT30;55104;47.356;19.448;2023-02-03T11:49:03;1.39;93.78
68274;SHT30;55104;47.356;19.448;2023-02-03T11:52:34;1.40;93.61
68274;SHT30;55104;47.356;19.448;2023-02-03T11:56:10;1.40;93.91
68274;SHT30;55104;47.356;19.448;2023-02-03T12:00:01;1.35;93.90
68274;SHT30;55104;47.356;19.448;2023-02-03T12:10:13;1.42;93.78
68274;SHT30;55104;47.356;19.448;2023-02-03T12:24:08;1.38;93.84
68274;SHT30;55104;47.356;19.448;2023-02-03T12:30:45;1.40;93.51
68274;SHT30;55104;47.356;19.448;2023-02-03T12:33:57;1.40;93.97
68274;SHT30;55104;47.356;19.448;2023-02-03T12:37:22;1.53;93.24
68274;SHT30;55104;47.356;19.448;2023-02-03T12:43:37;1.40;93.89
68274;SHT30;55104;47.356;19.448;2023-02-03T12:46:44;1.50;93.75
68274;SHT30;55104;47.356;19.448;2023-02-03T12:50:22;1.59;93.55
68274;SHT30;55104;47.356;19.448;2023-02-03T12:53:40;1.62;93.46
68274;SHT30;55104;47.356;19.448;2023-02-03T12:56:46;1.47;93.77
68274;SHT30;55104;47.356;19.448;2023-02-03T13:07:14;1.63;93.51
68274;SHT30;55104;47.356;19.448;2023-02-03T13:10:27;1.63;93.78
68274;SHT30;55104;47.356;19.448;2023-02-03T13:13:35;1.60;93.69
68274;SHT30;55104;47.356;19.448;2023-02-03T13:16:42;1.54;94.11
68274;SHT30;55104;47.356;19.448;2023-02-03T13:19:48;1.50;94.25
68274;SHT30;55104;47.356;19.448;2023-02-03T13:22:52;1.52;94.31
68274;SHT30;55104;47.356;19.448;2023-02-03T13:26:05;1.46;94.43
68274;SHT30;55104;47.356;19.448;2023-02-03T13:39:41;1.35;95.21
68274;SHT30;55104;47.356;19.448;2023-02-03T13:43:05;1.25;95.37
68274;SHT30;55104;47.356;19.448;2023-02-03T13:46:20;1.21;95.47
68274;SHT30;55104;47.356;19.448;2023-02-03T13:49:34;1.31;95.52
68274;SHT30;55104;47.356;19.448;2023-02-03T13:52:43;1.24;95.71
68274;SHT30;55104;47.356;19.448;2023-02-03T13:56:01;1.15;96.00
68274;SHT30;55104;47.356;19.448;2023-02-03T14:05:41;1.22;95.95
68274;SHT30;55104;47.356;19.448;2023-02-03T14:08:48;1.22;96.05
68274;SHT30;55104;47.356;19.448;2023-02-03T14:12:32;1.26;95.79
68274;SHT30;55104;47.356;19.448;2023-02-03T14:15:34;1.24;96.18
68274;SHT30;55104;47.356;19.448;2023-02-03T14:18:43;1.26;96.12
68274;SHT30;55104;47.356;19.448;2023-02-03T14:21:50;1.31;95.99
68274;SHT30;55104;47.356;19.448;2023-02-03T14:24:55;1.28;96.39
68274;SHT30;55104;47.356;19.448;2023-02-03T14:28:02;1.33;96.43
68274;SHT30;55104;47.356;19.448;2023-02-03T14:31:10;1.29;96.50
68274;SHT30;55104;47.356;19.448;2023-02-03T14:34:14;1.33;96.50
68274;SHT30;55104;47.356;19.448;2023-02-03T14:37:21;1.38;96.33
68274;SHT30;55104;47.356;19.448;2023-02-03T14:43:48;1.33;96.90
68274;SHT30;55104;47.356;19.448;2023-02-03T14:47:18;1.36;97.10
68274;SHT30;55104;47.356;19.448;2023-02-03T14:54:22;1.45;97.11
68274;SHT30;55104;47.356;19.448;2023-02-03T14:57:47;1.46;97.24
68274;SHT30;55104;47.356;19.448;2023-02-03T15:00:51;1.53;97.13
68274;SHT30;55104;47.356;19.448;2023-02-03T15:13:40;1.80;97.39
68274;SHT30;55104;47.356;19.448;2023-02-03T15:16:43;1.87;97.35
68274;SHT30;55104;47.356;19.448;2023-02-03T15:19:45;1.82;97.61
68274;SHT30;55104;47.356;19.448;2023-02-03T15:22:47;1.88;97.66
68274;SHT30;55104;47.356;19.448;2023-02-03T15:26:02;1.95;97.81
68274;SHT30;55104;47.356;19.448;2023-02-03T15:29:19;1.94;97.70
68274;SHT30;55104;47.356;19.448;2023-02-03T15:32:36;2.02;97.63
68274;SHT30;55104;47.356;19.448;2023-02-03T15:35:41;2.07;97.63
68274;SHT30;55104;47.356;19.448;2023-02-03T15:38:50;2.11;97.58
68274;SHT30;55104;47.356;19.448;2023-02-03T15:41:57;2.11;97.55
68274;SHT30;55104;47.356;19.448;2023-02-03T15:45:08;2.18;97.80
68274;SHT30;55104;47.356;19.448;2023-02-03T15:48:19;2.21;97.85
68274;SHT30;55104;47.356;19.448;2023-02-03T15:51:36;2.26;97.74
68274;SHT30;55104;47.356;19.448;2023-02-03T15:54:43;2.19;97.85
68274;SHT30;55104;47.356;19.448;2023-02-03T15:57:48;2.24;97.97
68274;SHT30;55104;47.356;19.448;2023-02-03T16:00:52;2.28;97.87
68274;SHT30;55104;47.356;19.448;2023-02-03T16:03:56;2.30;98.12
68274;SHT30;55104;47.356;19.448;2023-02-03T16:06:59;2.29;97.97
68274;SHT30;55104;47.356;19.448;2023-02-03T16:10:01;2.36;97.93
68274;SHT30;55104;47.356;19.448;2023-02-03T16:13:24;2.50;97.90
68274;SHT30;55104;47.356;19.448;2023-02-03T16:16:48;2.46;97.89
68274;SHT30;55104;47.356;19.448;2023-02-03T16:23:22;2.49;97.77
68274;SHT30;55104;47.356;19.448;2023-02-03T16:26:26;2.53;97.80
68274;SHT30;55104;47.356;19.448;2023-02-03T16:29:34;2.57;97.74
68274;SHT30;55104;47.356;19.448;2023-02-03T16:36:30;2.66;98.17
68274;SHT30;55104;47.356;19.448;2023-02-03T16:39:51;2.68;97.92
68274;SHT30;55104;47.356;19.448;2023-02-03T16:43:13;2.79;97.87
68274;SHT30;55104;47.356;19.448;2023-02-03T16:46:34;2.70;97.91
68274;SHT30;55104;47.356;19.448;2023-02-03T16:49:54;2.77;98.17
68274;SHT30;55104;47.356;19.448;2023-02-03T16:53:21;2.83;98.14
68274;SHT30;55104;47.356;19.448;2023-02-03T16:56:23;2.80;98.07
68274;SHT30;55104;47.356;19.448;2023-02-03T16:59:26;2.83;98.20
68274;SHT30;55104;47.356;19.448;2023-02-03T17:02:29;2.84;98.24
68274;SHT30;55104;47.356;19.448;2023-02-03T17:05:36;2.83;98.19
68274;SHT30;55104;47.356;19.448;2023-02-03T17:08:39;2.90;98.30
68274;SHT30;55104;47.356;19.448;2023-02-03T17:11:41;3.01;97.81
68274;SHT30;55104;47.356;19.448;2023-02-03T17:14:43;3.00;97.51
68274;SHT30;55104;47.356;19.448;2023-02-03T17:17:45;3.11;97.53
68274;SHT30;55104;47.356;19.448;2023-02-03T17:20:47;3.11;97.24
68274;SHT30;55104;47.356;19.448;2023-02-03T17:23:50;3.13;97.27
68274;SHT30;55104;47.356;19.448;2023-02-03T17:26:52;3.22;96.89
68274;SHT30;55104;47.356;19.448;2023-02-03T17:29:55;3.19;96.91
68274;SHT30;55104;47.356;19.448;2023-02-03T17:32:58;3.21;96.82
68274;SHT30;55104;47.356;19.448;2023-02-03T17:36:09;3.25;96.77
68274;SHT30;55104;47.356;19.448;2023-02-03T17:39:12;3.25;96.86
68274;SHT30;55104;47.356;19.448;2023-02-03T17:42:32;3.26;97.03
68274;SHT30;55104;47.356;19.448;2023-02-03T17:45:52;3.26;96.99
68274;SHT30;55104;47.356;19.448;2023-02-03T17:49:12;3.23;96.98
68274;SHT30;55104;47.356;19.448;2023-02-03T17:52:32;3.28;96.90
68274;SHT30;55104;47.356;19.448;2023-02-03T17:55:52;3.32;96.94
68274;SHT30;55104;47.356;19.448;2023-02-03T17:58:55;3.32;96.79
68274;SHT30;55104;47.356;19.448;2023-02-03T18:01:58;3.33;96.97
68274;SHT30;55104;47.356;19.448;2023-02-03T18:05:00;3.33;96.87
68274;SHT30;55104;47.356;19.448;2023-02-03T18:08:04;3.30;96.97
68274;SHT30;55104;47.356;19.448;2023-02-03T18:11:19;3.35;96.92
68274;SHT30;55104;47.356;19.448;2023-02-03T18:14:21;3.38;96.72
68274;SHT30;55104;47.356;19.448;2023-02-03T18:17:24;3.43;96.57
68274;SHT30;55104;47.356;19.448;2023-02-03T18:20:26;3.42;96.50
68274;SHT30;55104;47.356;19.448;2023-02-03T18:23:30;3.44;96.38
68274;SHT30;55104;47.356;19.448;2023-02-03T18:26:34;3.46;96.37
68274;SHT30;55104;47.356;19.448;2023-02-03T18:29:38;3.43;96.56
68274;SHT30;55104;47.356;19.448;2023-02-03T18:32:42;3.43;96.62
68274;SHT30;55104;47.356;19.448;2023-02-03T18:35:44;3.46;96.57
68274;SHT30;55104;47.356;19.448;2023-02-03T18:38:47;3.50;96.61
68274;SHT30;55104;47.356;19.448;2023-02-03T18:41:50;3.55;96.43
68274;SHT30;55104;47.356;19.448;2023-02-03T18:44:52;3.50;96.48
68274;SHT30;55104;47.356;19.448;2023-02-03T18:47:54;3.49;96.70
68274;SHT30;55104;47.356;19.448;2023-02-03T18:50:57;3.50;96.77
68274;SHT30;55104;47.356;19.448;2023-02-03T18:54:00;3.49;96.83
68274;SHT30;55104;47.356;19.448;2023-02-03T18:57:02;3.44;96.95
68274;SHT30;55104;47.356;19.448;2023-02-03T19:00:06;3.53;96.94
68274;SHT30;55104;47.356;19.448;2023-02-03T19:03:09;3.52;96.93
68274;SHT30;55104;47.356;19.448;2023-02-03T19:06:11;3.57;96.84
68274;SHT30;55104;47.356;19.448;2023-02-03T19:09:14;3.59;96.70
68274;SHT30;55104;47.356;19.448;2023-02-03T19:12:19;3.62;96.27
68274;SHT30;55104;47.356;19.448;2023-02-03T19:15:21;3.62;96.29
68274;SHT30;55104;47.356;19.448;2023-02-03T19:18:23;3.69;96.01
68274;SHT30;55104;47.356;19.448;2023-02-03T19:21:26;3.74;95.68
68274;SHT30;55104;47.356;19.448;2023-02-03T19:24:28;3.78;95.12
68274;SHT30;55104;47.356;19.448;2023-02-03T19:27:31;3.84;94.96
68274;SHT30;55104;47.356;19.448;2023-02-03T19:30:34;3.91;94.76
68274;SHT30;55104;47.356;19.448;2023-02-03T19:33:38;3.88;94.77
68274;SHT30;55104;47.356;19.448;2023-02-03T19:36:40;3.77;95.07
68274;SHT30;55104;47.356;19.448;2023-02-03T19:39:43;3.77;95.26
68274;SHT30;55104;47.356;19.448;2023-02-03T19:42:51;3.74;95.40
68274;SHT30;55104;47.356;19.448;2023-02-03T19:45:53;3.71;95.39
68274;SHT30;55104;47.356;19.448;2023-02-03T19:48:55;3.70;95.42
68274;SHT30;55104;47.356;19.448;2023-02-03T19:51:58;3.74;95.40
68274;SHT30;55104;47.356;19.448;2023-02-03T19:55:00;3.76;95.08
68274;SHT30;55104;47.356;19.448;2023-02-03T19:58:03;3.77;94.78
68274;SHT30;55104;47.356;19.448;2023-02-03T20:01:05;3.83;94.29
68274;SHT30;55104;47.356;19.448;2023-02-03T20:04:08;3.80;93.93
68274;SHT30;55104;47.356;19.448;2023-02-03T20:07:11;3.88;93.04
68274;SHT30;55104;47.356;19.448;2023-02-03T20:10:14;3.91;92.92
68274;SHT30;55104;47.356;19.448;2023-02-03T20:13:17;3.93;92.39
68274;SHT30;55104;47.356;19.448;2023-02-03T20:16:19;3.99;91.56
68274;SHT30;55104;47.356;19.448;2023-02-03T20:19:21;3.93;91.46
68274;SHT30;55104;47.356;19.448;2023-02-03T20:22:24;3.83;91.92
68274;SHT30;55104;47.356;19.448;2023-02-03T20:25:27;3.80;91.71
68274;SHT30;55104;47.356;19.448;2023-02-03T20:28:29;3.87;91.38
68274;SHT30;55104;47.356;19.448;2023-02-03T20:31:32;3.90;90.81
68274;SHT30;55104;47.356;19.448;2023-02-03T20:34:34;3.93;90.51
68274;SHT30;55104;47.356;19.448;2023-02-03T20:37:37;4.01;89.90
68274;SHT30;55104;47.356;19.448;2023-02-03T20:40:39;4.01;89.54
68274;SHT30;55104;47.356;19.448;2023-02-03T20:43:43;3.95;89.60
68274;SHT30;55104;47.356;19.448;2023-02-03T20:46:45;4.05;88.66
68274;SHT30;55104;47.356;19.448;2023-02-03T20:49:47;4.12;88.23
68274;SHT30;55104;47.356;19.448;2023-02-03T20:52:51;4.04;88.47
68274;SHT30;55104;47.356;19.448;2023-02-03T20:55:57;4.09;88.11
68274;SHT30;55104;47.356;19.448;2023-02-03T20:59:00;4.12;88.13
68274;SHT30;55104;47.356;19.448;2023-02-03T21:02:07;4.06;88.54
68274;SHT30;55104;47.356;19.448;2023-02-03T21:05:27;4.02;88.52
68274;SHT30;55104;47.356;19.448;2023-02-03T21:08:29;4.02;88.80
68274;SHT30;55104;47.356;19.448;2023-02-03T21:11:32;3.99;88.86
68274;SHT30;55104;47.356;19.448;2023-02-03T21:14:46;3.99;88.56
68274;SHT30;55104;47.356;19.448;2023-02-03T21:17:51;3.94;88.76
68274;SHT30;55104;47.356;19.448;2023-02-03T21:20:54;3.95;88.65